Time;durP1;ratioP1;P1;durP2;ratioP2;P2;SDS_P1;SDS_P2;PMS_P1;PMS_P2;Temp;Humidity;BMP_temperature;BMP_pressure;BME280_temperature;BME280_humidity;BME280_pressure;Samples;Min_cycle;Max_cycle;Signal;HPM_P1;HPM_P2
2024/02/17 00:01:45;;;;;;;;;;;;;;;11.14;71.44;101514.19;4941015;29;19922;-79
2024/02/17 00:04:37;;;;;;;;;;;;;;;10.81;73.16;101515.31;4940843;29;19919;-79
2024/02/17 00:07:29;;;;;;;;;;;;;;;10.94;73.29;101519.16;4931398;29;19922;-79
2024/02/17 00:10:21;;;;;;;;;;;;;;;11.01;73.04;101517.69;4956138;28;19922;-79
2024/02/17 00:13:13;;;;;;;;;;;;;;;11.02;72.56;101523.94;4940441;29;19918;-79
2024/02/17 00:16:06;;;;;;;;;;;;;;;11.13;71.48;101522.63;4954936;29;19923;-79
2024/02/17 00:18:56;;;;;;;;;;;;;;;11.33;71.11;101521.47;4940545;29;20380;-79
2024/02/17 00:21:47;;;;;;;;;;;;;;;11.38;70.86;101518.66;4954634;29;20288;-81
2024/02/17 00:24:39;;;;;;;;;;;;;;;11.49;70.04;101520.06;4954574;29;19941;-80
2024/02/17 00:27:31;;;;;;;;;;;;;;;11.29;70.80;101515.00;4953913;29;19918;-79
2024/02/17 00:30:21;;;;;;;;;;;;;;;11.21;71.27;101511.06;4954471;29;20396;-79
2024/02/17 00:33:13;;;;;;;;;;;;;;;11.28;71.38;101516.09;4954528;29;20354;-81
2024/02/17 00:36:05;;;;;;;;;;;;;;;10.88;73.03;101514.91;4954316;29;20332;-80
2024/02/17 00:38:54;;;;;;;;;;;;;;;11.02;72.66;101519.28;4940181;29;19922;-81
2024/02/17 00:41:46;;;;;;;;;;;;;;;10.97;72.48;101513.91;4954517;29;19926;-79
2024/02/17 00:44:38;;;;;;;;;;;;;;;10.84;73.16;101511.97;4954301;29;19918;-79
2024/02/17 00:47:28;;;;;;;;;;;;;;;10.52;74.29;101509.22;4952743;29;19923;-79
2024/02/17 00:50:20;;;;;;;;;;;;;;;10.50;75.10;101512.25;4940117;29;19922;-79
2024/02/17 00:53:11;;;;;;;;;;;;;;;10.69;74.61;101515.75;4954200;29;19922;-80
2024/02/17 00:56:03;;;;;;;;;;;;;;;10.99;73.37;101517.16;4942126;29;19918;-80
2024/02/17 00:58:55;;;;;;;;;;;;;;;11.24;72.69;101517.81;4953837;29;20304;-80
2024/02/17 01:01:47;;;;;;;;;;;;;;;11.46;71.57;101518.78;4958111;28;19923;-82
2024/02/17 01:04:39;;;;;;;;;;;;;;;11.67;70.65;101524.66;4941416;29;20517;-79
2024/02/17 01:07:31;;;;;;;;;;;;;;;11.61;70.54;101520.41;4953623;29;19922;-80
2024/02/17 01:10:20;;;;;;;;;;;;;;;11.48;70.78;101522.00;4941411;29;19923;-81
2024/02/17 01:13:12;;;;;;;;;;;;;;;11.49;70.94;101523.59;4954406;28;19918;-80
2024/02/17 01:16:02;;;;;;;;;;;;;;;11.56;70.83;101523.22;4958245;28;19919;-79
2024/02/17 01:18:54;;;;;;;;;;;;;;;11.58;70.79;101520.97;4948126;29;20301;-80
2024/02/17 01:21:46;;;;;;;;;;;;;;;11.68;69.85;101517.28;4948172;29;19926;-81
2024/02/17 01:24:38;;;;;;;;;;;;;;;11.23;70.70;101519.72;4945744;29;19919;-79
2024/02/17 01:27:32;;;;;;;;;;;;;;;10.71;73.41;101519.00;4938186;29;20502;-79
2024/02/17 01:30:24;;;;;;;;;;;;;;;10.92;73.34;101513.22;4953531;29;19919;-79
2024/02/17 01:33:16;;;;;;;;;;;;;;;11.05;72.28;101518.69;4953289;29;19918;-80
2024/02/17 01:36:14;;;;;;;;;;;;;;;11.23;71.76;101518.91;4953360;29;20307;-79
2024/02/17 01:39:06;;;;;;;;;;;;;;;11.28;71.51;101514.19;4938381;29;20400;-79
2024/02/17 01:41:56;;;;;;;;;;;;;;;11.29;70.81;101510.38;4941175;29;19919;-79
2024/02/17 01:44:45;;;;;;;;;;;;;;;11.13;71.35;101514.47;4952598;28;20399;-79
2024/02/17 01:47:35;;;;;;;;;;;;;;;11.23;70.84;101519.72;4955991;28;20323;-79
2024/02/17 01:50:27;;;;;;;;;;;;;;;11.27;70.90;101509.06;4952993;29;19923;-79
2024/02/17 01:53:18;;;;;;;;;;;;;;;11.32;70.83;101512.50;4953086;29;19919;-80
2024/02/17 01:56:10;;;;;;;;;;;;;;;11.33;71.32;101507.84;4942003;29;20300;-79
2024/02/17 01:59:02;;;;;;;;;;;;;;;11.48;71.19;101522.00;4953072;29;19922;-80
2024/02/17 02:01:54;;;;;;;;;;;;;;;11.52;70.96;101522.22;4938873;29;19918;-80
2024/02/17 02:04:46;;;;;;;;;;;;;;;11.49;71.43;101520.06;4965412;28;19930;-79
2024/02/17 02:07:38;;;;;;;;;;;;;;;11.40;71.42;101516.44;4952647;29;20400;-79
2024/02/17 02:10:30;;;;;;;;;;;;;;;11.55;71.14;101522.41;4940359;29;19918;-80
2024/02/17 02:13:21;;;;;;;;;;;;;;;11.51;70.29;101515.97;4945139;29;20303;-80
2024/02/17 02:16:13;;;;;;;;;;;;;;;11.44;70.51;101514.72;4948513;29;20379;-79
2024/02/17 02:19:05;;;;;;;;;;;;;;;11.39;71.10;101518.34;4953235;29;19918;-80
2024/02/17 02:21:57;;;;;;;;;;;;;;;11.44;71.51;101517.44;4953296;28;20320;-79
2024/02/17 02:24:50;;;;;;;;;;;;;;;11.42;71.00;101514.25;4943259;28;19919;-79
2024/02/17 02:27:45;;;;;;;;;;;;;;;11.45;71.33;101519.06;4952884;28;20392;-79
2024/02/17 02:30:37;;;;;;;;;;;;;;;11.53;70.99;101521.06;4940214;29;19922;-79
2024/02/17 02:33:29;;;;;;;;;;;;;;;11.49;70.34;101522.81;4939088;29;19922;-81
2024/02/17 02:36:21;;;;;;;;;;;;;;;11.23;70.93;101518.91;4953368;29;19919;-81
2024/02/17 02:39:10;;;;;;;;;;;;;;;11.18;71.40;101519.81;4957494;28;19922;-80
2024/02/17 02:42:02;;;;;;;;;;;;;;;11.24;71.26;101515.09;4953456;28;19918;-79
2024/02/17 02:44:52;;;;;;;;;;;;;;;11.27;71.07;101509.06;4931849;28;19922;-79
2024/02/17 02:47:41;;;;;;;;;;;;;;;11.27;71.24;101515.34;4952959;29;19930;-79
2024/02/17 02:50:33;;;;;;;;;;;;;;;11.39;71.88;101518.34;4968749;28;20108;-79
2024/02/17 02:53:22;;;;;;;;;;;;;;;11.45;71.79;101517.16;4956690;29;19923;-79
2024/02/17 02:56:14;;;;;;;;;;;;;;;11.42;71.84;101511.50;4956153;29;20571;-79
2024/02/17 02:59:06;;;;;;;;;;;;;;;11.42;72.28;101516.97;4957086;28;19923;-79
2024/02/17 03:01:56;;;;;;;;;;;;;;;11.40;72.34;101511.00;4956703;29;19926;-79
2024/02/17 03:04:45;;;;;;;;;;;;;;;11.47;71.46;101516.88;4948633;28;19918;-80
2024/02/17 03:07:37;;;;;;;;;;;;;;;11.50;71.57;101513.53;4943302;29;19927;-79
2024/02/17 03:10:29;;;;;;;;;;;;;;;11.43;71.56;101516.63;4956482;29;20578;-80
2024/02/17 03:13:21;;;;;;;;;;;;;;;11.36;71.58;101507.25;4945042;29;20320;-79
2024/02/17 03:16:13;;;;;;;;;;;;;;;11.33;72.53;101514.09;4956599;28;19918;-79
2024/02/17 03:19:00;;;;;;;;;;;;;;;11.38;71.56;101511.28;4968845;28;19922;-79
2024/02/17 03:21:52;;;;;;;;;;;;;;;11.45;70.43;101510.91;4949352;29;20002;-80
2024/02/17 03:24:44;;;;;;;;;;;;;;;11.19;70.44;101512.47;4936750;29;20396;-80
2024/02/17 03:27:34;;;;;;;;;;;;;;;11.00;71.99;101509.81;4955742;28;19923;-79
2024/02/17 03:30:26;;;;;;;;;;;;;;;11.19;71.23;101521.44;4923029;29;19919;-80
2024/02/17 03:33:18;;;;;;;;;;;;;;;11.19;71.17;101516.00;4927349;29;20308;-80
2024/02/17 03:36:07;;;;;;;;;;;;;;;11.26;70.58;101515.63;4918175;29;19923;-80
2024/02/17 03:38:59;;;;;;;;;;;;;;;11.24;70.67;101517.81;4904868;29;20313;-79
2024/02/17 03:41:51;;;;;;;;;;;;;;;11.28;70.80;101525.09;4917887;29;19923;-80
2024/02/17 03:44:43;;;;;;;;;;;;;;;11.21;70.38;101521.97;4903830;29;20381;-79
2024/02/17 03:47:35;;;;;;;;;;;;;;;11.19;70.44;101518.72;4917101;29;19927;-80
2024/02/17 03:50:27;;;;;;;;;;;;;;;11.23;70.47;101525.19;4903835;29;19920;-80
2024/02/17 03:53:19;;;;;;;;;;;;;;;11.22;70.30;101522.78;4904217;29;19919;-80
2024/02/17 03:56:10;;;;;;;;;;;;;;;11.19;70.52;101536.97;4922263;29;19920;-79
2024/02/17 03:59:02;;;;;;;;;;;;;;;11.24;69.59;101534.97;4903765;29;20305;-79
2024/02/17 04:01:55;;;;;;;;;;;;;;;11.20;69.66;101531.22;4916836;29;19919;-80
2024/02/17 04:04:47;;;;;;;;;;;;;;;11.26;69.10;101534.69;4903848;29;19920;-79
2024/02/17 04:07:38;;;;;;;;;;;;;;;11.25;69.22;101536.59;4903660;29;19923;-80
2024/02/17 04:10:30;;;;;;;;;;;;;;;11.21;69.51;101553.81;4916567;29;20308;-80
2024/02/17 04:13:20;;;;;;;;;;;;;;;11.15;68.92;101547.66;4903575;29;19919;-79
2024/02/17 04:16:09;;;;;;;;;;;;;;;11.32;70.20;101558.00;4909416;29;19923;-79
2024/02/17 04:19:02;;;;;;;;;;;;;;;10.78;71.07;101551.25;4917143;29;19919;-79
2024/02/17 04:21:51;;;;;;;;;;;;;;;10.58;71.70;101565.16;4921830;29;20406;-79
2024/02/17 04:24:43;;;;;;;;;;;;;;;10.54;73.53;101564.94;4935903;29;19978;-78
2024/02/17 04:27:35;;;;;;;;;;;;;;;10.31;72.48;101571.22;4924140;29;19926;-79
2024/02/17 04:30:27;;;;;;;;;;;;;;;10.00;73.98;101573.53;4940555;29;19922;-78
2024/02/17 04:33:19;;;;;;;;;;;;;;;9.50;74.71;101579.50;4940875;29;19918;-78
2024/02/17 04:36:12;;;;;;;;;;;;;;;9.64;75.02;101581.25;4960210;28;19922;-78
2024/02/17 04:39:04;;;;;;;;;;;;;;;9.47;75.58;101586.31;4941031;29;20396;-78
2024/02/17 04:41:53;;;;;;;;;;;;;;;9.66;76.04;101587.19;4947531;29;19919;-77
2024/02/17 04:44:45;;;;;;;;;;;;;;;9.56;75.58;101583.78;4924978;29;19923;-78
2024/02/17 04:47:37;;;;;;;;;;;;;;;9.33;76.38;101588.88;4935636;29;19927;-78
2024/02/17 04:50:29;;;;;;;;;;;;;;;9.37;77.76;101592.63;4910054;29;19922;-78
2024/02/17 04:53:21;;;;;;;;;;;;;;;9.65;74.19;101595.66;4942416;29;19919;-78
2024/02/17 04:56:13;;;;;;;;;;;;;;;9.69;72.12;101594.78;4943468;28;19922;-78
2024/02/17 04:59:05;;;;;;;;;;;;;;;9.88;70.84;101598.38;4952873;28;19919;-78
2024/02/17 05:01:57;;;;;;;;;;;;;;;10.00;70.47;101597.16;4941679;29;19923;-77
2024/02/17 05:04:49;;;;;;;;;;;;;;;9.99;69.43;101601.78;4935845;29;20372;-78
2024/02/17 05:07:39;;;;;;;;;;;;;;;10.08;68.63;101591.06;4935898;29;19927;-77
2024/02/17 05:10:31;;;;;;;;;;;;;;;10.08;68.96;101605.47;4948317;29;19919;-78
2024/02/17 05:13:23;;;;;;;;;;;;;;;10.16;70.03;101615.72;4939937;29;19919;-77
2024/02/17 05:16:15;;;;;;;;;;;;;;;10.19;68.84;101615.16;4935519;29;19918;-77
2024/02/17 05:19:07;;;;;;;;;;;;;;;10.15;68.37;101626.88;4935631;29;20296;-81
2024/02/17 05:21:59;;;;;;;;;;;;;;;9.49;70.03;101619.41;4935779;29;19918;-78
2024/02/17 05:24:51;;;;;;;;;;;;;;;9.48;71.49;101625.13;4937254;29;19919;-78
2024/02/17 05:27:43;;;;;;;;;;;;;;;9.13;73.67;101618.91;4934628;29;19926;-78
2024/02/17 05:30:35;;;;;;;;;;;;;;;9.13;73.80;101624.34;4936550;29;19919;-78
2024/02/17 05:33:27;;;;;;;;;;;;;;;9.07;74.49;101622.75;4934748;29;20369;-78
2024/02/17 05:36:19;;;;;;;;;;;;;;;8.93;75.40;101622.59;4944380;28;19923;-78
2024/02/17 05:39:11;;;;;;;;;;;;;;;8.90;76.69;101619.59;4953383;28;19918;-77
2024/02/17 05:42:03;;;;;;;;;;;;;;;8.99;76.72;101626.84;4935779;29;19919;-78
2024/02/17 05:44:55;;;;;;;;;;;;;;;8.92;77.13;101631.81;4954638;28;19919;-78
2024/02/17 05:47:48;;;;;;;;;;;;;;;8.83;76.84;101632.69;4934482;29;19927;-79
2024/02/17 05:50:40;;;;;;;;;;;;;;;8.68;77.44;101635.47;4937169;29;20303;-77
2024/02/17 05:53:32;;;;;;;;;;;;;;;8.53;76.60;101639.09;4943085;29;19944;-78
2024/02/17 05:56:24;;;;;;;;;;;;;;;8.65;76.90;101644.97;4949879;28;19922;-78
2024/02/17 05:59:16;;;;;;;;;;;;;;;8.77;75.85;101641.94;4949663;29;19918;-77
2024/02/17 06:02:08;;;;;;;;;;;;;;;8.81;72.78;101653.84;4956487;28;19918;-78
2024/02/17 06:05:00;;;;;;;;;;;;;;;8.96;71.94;101656.47;4943027;28;20384;-79
2024/02/17 06:07:52;;;;;;;;;;;;;;;9.00;72.09;101657.50;4947262;29;19923;-79
2024/02/17 06:10:42;;;;;;;;;;;;;;;9.05;72.21;101665.63;4946137;28;19919;-79
2024/02/17 06:13:34;;;;;;;;;;;;;;;8.83;72.46;101673.38;4949432;29;19918;-78
2024/02/17 06:16:27;;;;;;;;;;;;;;;8.95;72.80;101671.91;4963641;28;20400;-78
2024/02/17 06:22:25;;;;;;;;;;;;;;;8.95;73.86;101673.81;4936597;29;19919;-78
2024/02/17 06:25:17;;;;;;;;;;;;;;;8.87;73.56;101685.28;4948767;29;19918;-78
2024/02/17 06:28:09;;;;;;;;;;;;;;;8.88;73.49;101692.31;4957723;29;19926;-79
2024/02/17 06:31:01;;;;;;;;;;;;;;;8.82;74.05;101690.72;4930610;29;19934;-79
2024/02/17 06:33:54;;;;;;;;;;;;;;;8.74;73.86;101694.81;4946873;29;19919;-79
2024/02/17 06:36:46;;;;;;;;;;;;;;;8.78;73.35;101697.81;4941839;29;19922;-79
2024/02/17 06:39:38;;;;;;;;;;;;;;;8.88;72.85;101703.97;4948667;29;19922;-78
2024/02/17 06:42:30;;;;;;;;;;;;;;;8.75;72.50;101710.00;4942144;28;19919;-79
2024/02/17 06:45:22;;;;;;;;;;;;;;;8.71;73.12;101713.53;4956248;28;19918;-79
2024/02/17 06:48:12;;;;;;;;;;;;;;;8.86;70.98;101721.59;4963566;28;19922;-79
2024/02/17 06:51:04;;;;;;;;;;;;;;;8.95;70.38;101726.16;4957699;29;19919;-79
2024/02/17 06:53:56;;;;;;;;;;;;;;;8.96;72.16;101726.97;4951129;28;19923;-79
2024/02/17 06:56:45;;;;;;;;;;;;;;;9.14;71.20;101722.81;4943969;29;19922;-79
2024/02/17 06:59:37;;;;;;;;;;;;;;;8.87;73.00;101737.63;4931000;29;19918;-80
2024/02/17 07:02:29;;;;;;;;;;;;;;;8.69;73.31;101737.41;4948802;29;19918;-80
2024/02/17 07:05:20;;;;;;;;;;;;;;;9.07;72.53;101739.41;4930765;28;19919;-80
2024/02/17 07:08:12;;;;;;;;;;;;;;;9.28;71.77;101740.91;4917438;29;20380;-80
2024/02/17 07:11:04;;;;;;;;;;;;;;;9.23;71.18;101756.41;4939486;29;19919;-79
2024/02/17 07:13:56;;;;;;;;;;;;;;;9.13;72.53;101757.28;4936475;29;19922;-78
2024/02/17 07:16:48;;;;;;;;;;;;;;;9.21;72.54;101764.00;4945458;29;19922;-79
2024/02/17 07:19:40;;;;;;;;;;;;;;;9.37;72.38;101771.78;4936738;29;19918;-78
2024/02/17 07:22:32;;;;;;;;;;;;;;;9.65;70.96;101767.50;4954623;29;19922;-77
2024/02/17 07:25:24;;;;;;;;;;;;;;;9.84;71.49;101789.38;4957647;29;19919;-80
2024/02/17 07:28:16;;;;;;;;;;;;;;;9.40;74.78;101786.69;4957386;29;20001;-81
2024/02/17 07:31:05;;;;;;;;;;;;;;;9.26;76.75;101797.38;4944473;29;19918;-80
2024/02/17 07:33:57;;;;;;;;;;;;;;;9.09;77.74;101794.22;4957065;29;19918;-79
2024/02/17 07:36:46;;;;;;;;;;;;;;;9.88;74.87;101793.16;4955663;28;19919;-80
2024/02/17 07:39:38;;;;;;;;;;;;;;;9.31;76.92;101802.78;4923747;29;19922;-79
2024/02/17 07:42:30;;;;;;;;;;;;;;;9.44;76.06;101807.59;4946090;28;19926;-80
2024/02/17 07:45:19;;;;;;;;;;;;;;;8.99;79.10;101818.66;4946403;29;19922;-79
2024/02/17 07:48:11;;;;;;;;;;;;;;;9.08;78.64;101813.47;4939269;29;20020;-79
2024/02/17 07:51:03;;;;;;;;;;;;;;;9.14;78.53;101829.47;4941610;29;20384;-80
2024/02/17 07:53:55;;;;;;;;;;;;;;;9.22;79.20;101825.34;4955079;29;19918;-79
2024/02/17 07:56:42;;;;;;;;;;;;;;;8.86;78.69;101833.63;4947245;29;19918;-79
2024/02/17 07:59:34;;;;;;;;;;;;;;;9.21;77.69;101831.84;4944982;29;20384;-80
2024/02/17 08:02:26;;;;;;;;;;;;;;;8.95;78.99;101836.56;4945855;28;19918;-78
2024/02/17 08:05:16;;;;;;;;;;;;;;;8.72;80.12;101839.91;4953797;29;19922;-80
2024/02/17 08:08:08;;;;;;;;;;;;;;;8.76;79.74;101847.22;4956496;29;19926;-79
2024/02/17 08:10:57;;;;;;;;;;;;;;;9.45;79.96;101843.69;4929108;29;20424;-80
2024/02/17 08:13:54;;;;;;;;;;;;;;;9.66;77.03;101857.94;4957108;28;19922;-78
2024/02/17 08:16:46;;;;;;;;;;;;;;;9.92;77.04;101855.88;4955137;28;19919;-77
2024/02/17 08:19:38;;;;;;;;;;;;;;;10.29;75.69;101853.44;4934852;29;19927;-80
2024/02/17 08:22:28;;;;;;;;;;;;;;;10.12;75.90;101851.09;4921354;29;20319;-78
2024/02/17 08:25:20;;;;;;;;;;;;;;;10.13;76.45;101863.59;4940900;29;19919;-78
2024/02/17 08:28:12;;;;;;;;;;;;;;;9.85;77.21;101864.38;4952302;29;19923;-78
2024/02/17 08:31:04;;;;;;;;;;;;;;;9.65;79.48;101865.28;4948010;28;19918;-81
2024/02/17 08:33:56;;;;;;;;;;;;;;;10.02;75.47;101870.22;4943447;29;19919;-81
2024/02/17 08:36:46;;;;;;;;;;;;;;;9.44;79.87;101878.19;4933501;29;19922;-81
2024/02/17 08:39:37;;;;;;;;;;;;;;;10.21;77.39;101864.91;4961921;29;19922;-81
2024/02/17 08:42:30;;;;;;;;;;;;;;;10.64;75.96;101874.88;4943354;28;20295;-81
2024/02/17 08:45:19;;;;;;;;;;;;;;;10.13;78.41;101870.94;4947654;29;19918;-80
2024/02/17 08:48:11;;;;;;;;;;;;;;;10.55;77.22;101878.50;4955551;28;20308;-80
2024/02/17 08:50:58;;;;;;;;;;;;;;;10.85;73.58;101872.75;4946138;29;19919;-81
2024/02/17 08:53:47;;;;;;;;;;;;;;;10.72;77.16;101874.25;4947433;28;19918;-81
2024/02/17 08:56:37;;;;;;;;;;;;;;;10.92;75.92;101875.94;4954805;28;19919;-81
2024/02/17 08:59:26;;;;;;;;;;;;;;;10.44;74.91;101880.50;4959243;28;19918;-80
2024/02/17 09:02:18;;;;;;;;;;;;;;;10.65;76.31;101878.41;4942696;29;19922;-81
2024/02/17 09:05:08;;;;;;;;;;;;;;;10.96;75.18;101879.72;4936368;29;19923;-82
2024/02/17 09:07:58;;;;;;;;;;;;;;;11.10;75.29;101888.81;4950049;29;19927;-81
2024/02/17 09:13:44;;;;;;;;;;;;;;;11.29;72.56;101893.47;5965989;23;20643;-82
2024/02/17 09:16:38;;;;;;;;;;;;;;;11.89;71.28;101892.69;4941883;28;19922;-81
2024/02/17 09:19:30;;;;;;;;;;;;;;;12.02;71.58;101895.81;4945184;28;19918;-81
2024/02/17 09:22:22;;;;;;;;;;;;;;;12.07;69.29;101898.44;4944386;28;20388;-80
2024/02/17 09:25:14;;;;;;;;;;;;;;;13.00;66.66;101900.13;4944116;28;19918;-81
2024/02/17 09:28:13;;;;;;;;;;;;;;;13.80;64.14;101896.84;4953328;28;19923;-81
2024/02/17 09:31:28;;;;;;;;;;;;;;;14.83;60.57;101897.59;5074225;23;19934;-81
2024/02/17 09:34:20;;;;;;;;;;;;;;;15.75;57.42;101902.09;4935762;28;20388;-83
2024/02/17 09:37:11;;;;;;;;;;;;;;;14.18;61.56;101909.06;4956672;29;19919;-82
2024/02/17 09:42:58;;;;;;;;;;;;;;;14.00;62.76;101912.78;5680832;23;19938;-82
2024/02/17 09:45:48;;;;;;;;;;;;;;;15.29;58.64;101911.63;4924385;29;19927;-83
2024/02/17 09:48:40;;;;;;;;;;;;;;;16.06;58.16;101908.25;4935145;28;19926;-82
2024/02/17 09:51:33;;;;;;;;;;;;;;;17.61;51.61;101915.28;4926471;29;19918;-84
2024/02/17 09:54:25;;;;;;;;;;;;;;;17.98;50.97;101917.09;4914727;29;19919;-82
2024/02/17 09:57:17;;;;;;;;;;;;;;;18.26;51.38;101920.09;4942235;28;19923;-83
2024/02/17 10:00:16;;;;;;;;;;;;;;;17.72;52.56;101913.75;4932859;29;19919;-82
2024/02/17 10:03:07;;;;;;;;;;;;;;;16.62;53.51;101917.41;4918235;29;19919;-84
2024/02/17 10:05:56;;;;;;;;;;;;;;;17.17;54.40;101922.13;4905418;29;19923;-80
2024/02/17 10:08:47;;;;;;;;;;;;;;;16.26;56.67;101918.56;4912179;29;19923;-80
2024/02/17 10:11:34;;;;;;;;;;;;;;;15.24;60.29;101917.25;4909376;29;19923;-80
2024/02/17 10:14:29;;;;;;;;;;;;;;;14.90;60.81;101914.38;4907146;29;19918;-84
2024/02/17 10:17:22;;;;;;;;;;;;;;;16.04;58.62;101921.50;4922871;29;19922;-83
2024/02/17 10:20:14;;;;;;;;;;;;;;;18.80;50.01;101937.41;4918419;29;19919;-82
2024/02/17 10:23:05;;;;;;;;;;;;;;;20.69;44.94;101933.84;4917462;29;19948;-83
2024/02/17 10:25:59;;;;;;;;;;;;;;;20.48;44.00;101931.31;4922659;29;20300;-81
2024/02/17 10:28:57;;;;;;;;;;;;;;;23.88;37.46;101939.28;4916470;29;19923;-81
2024/02/17 10:31:45;;;;;;;;;;;;;;;27.08;31.30;101951.66;4915399;29;20129;-81
2024/02/17 10:34:35;;;;;;;;;;;;;;;28.26;29.73;101952.28;4925218;29;19927;-82
2024/02/17 10:37:29;;;;;;;;;;;;;;;27.50;29.69;101952.88;4922730;29;20312;-80
2024/02/17 10:40:19;;;;;;;;;;;;;;;25.81;33.03;101951.19;4905777;29;19922;-81
2024/02/17 10:43:06;;;;;;;;;;;;;;;27.04;30.27;101955.66;4902988;29;19922;-81
2024/02/17 10:45:56;;;;;;;;;;;;;;;26.15;30.87;101949.81;4914736;29;19919;-81
2024/02/17 10:48:49;;;;;;;;;;;;;;;26.20;31.41;101957.81;4925743;29;19972;-80
2024/02/17 10:51:40;;;;;;;;;;;;;;;24.84;33.08;101959.16;4904481;29;19926;-80
2024/02/17 10:54:53;;;;;;;;;;;;;;;27.81;29.54;101966.00;4932084;29;19923;-81
2024/02/17 10:58:01;;;;;;;;;;;;;;;24.52;34.05;101959.59;4919816;29;19918;-81
2024/02/17 11:00:50;;;;;;;;;;;;;;;24.98;32.39;101960.13;4919372;29;19923;-80
2024/02/17 11:03:44;;;;;;;;;;;;;;;27.74;28.75;101968.81;4918081;29;19923;-81
2024/02/17 11:06:37;;;;;;;;;;;;;;;28.35;27.59;101958.25;4911949;29;19919;-82
2024/02/17 11:09:26;;;;;;;;;;;;;;;27.45;28.76;101973.63;4910870;29;19923;-82
2024/02/17 11:12:33;;;;;;;;;;;;;;;25.27;30.10;101966.72;4908984;29;19923;-82
2024/02/17 11:15:25;;;;;;;;;;;;;;;29.07;26.15;101967.81;4927856;29;19919;-80
2024/02/17 11:18:17;;;;;;;;;;;;;;;27.24;29.02;101971.63;4920118;29;20353;-79
2024/02/17 11:21:09;;;;;;;;;;;;;;;27.75;28.02;101972.41;4908739;29;19919;-79
2024/02/17 11:24:09;;;;;;;;;;;;;;;27.53;27.24;101969.63;4916976;29;19918;-79
2024/02/17 11:26:59;;;;;;;;;;;;;;;29.50;26.23;101974.72;4926408;29;19919;-80
2024/02/17 11:29:51;;;;;;;;;;;;;;;28.40;27.52;101969.81;4920183;29;19938;-79
2024/02/17 11:32:46;;;;;;;;;;;;;;;27.82;28.44;101966.81;4925876;29;19919;-79
2024/02/17 11:35:38;;;;;;;;;;;;;;;27.68;28.86;101964.84;4922198;29;19923;-79
2024/02/17 11:38:29;;;;;;;;;;;;;;;29.07;26.06;101956.63;4896502;29;20300;-79
2024/02/17 11:41:22;;;;;;;;;;;;;;;26.65;29.95;101950.00;4920574;29;19919;-79
2024/02/17 11:44:16;;;;;;;;;;;;;;;26.72;30.45;101948.00;4922505;29;19934;-79
2024/02/17 11:47:07;;;;;;;;;;;;;;;29.75;26.28;101946.41;4911679;29;19923;-79
2024/02/17 11:50:09;;;;;;;;;;;;;;;27.42;28.13;101948.50;4904333;29;19923;-79
2024/02/17 11:53:04;;;;;;;;;;;;;;;27.83;28.27;101938.47;4925769;29;19923;-79
2024/02/17 11:55:59;;;;;;;;;;;;;;;28.87;26.46;101931.16;4918441;29;20316;-79
2024/02/17 11:58:46;;;;;;;;;;;;;;;30.68;23.99;101946.09;4908999;29;20392;-79
2024/02/17 12:01:41;;;;;;;;;;;;;;;32.48;22.08;101948.41;4927335;29;19923;-80
2024/02/17 12:04:38;;;;;;;;;;;;;;;29.30;24.47;101937.22;4918442;29;19919;-79
2024/02/17 12:07:30;;;;;;;;;;;;;;;28.47;25.59;101941.00;4921699;29;19923;-79
2024/02/17 12:10:22;;;;;;;;;;;;;;;28.37;26.36;101925.06;4923899;29;19923;-79
2024/02/17 12:13:11;;;;;;;;;;;;;;;28.74;26.32;101924.47;4919628;29;20388;-79
2024/02/17 12:16:11;;;;;;;;;;;;;;;31.77;22.22;101935.00;4921906;29;19923;-79
2024/02/17 12:19:09;;;;;;;;;;;;;;;30.13;24.46;101927.53;4910968;29;19923;-78
2024/02/17 12:21:58;;;;;;;;;;;;;;;27.43;28.59;101913.75;4897677;29;19918;-80
2024/02/17 12:24:50;;;;;;;;;;;;;;;29.87;25.25;101919.84;4933757;29;19919;-79
2024/02/17 12:27:37;;;;;;;;;;;;;;;27.17;28.21;101920.56;4904790;29;19923;-80
2024/02/17 12:30:29;;;;;;;;;;;;;;;29.36;25.83;101924.38;4899875;29;19927;-78
2024/02/17 12:33:21;;;;;;;;;;;;;;;29.81;25.07;101936.34;4934835;29;20304;-79
2024/02/17 12:36:16;;;;;;;;;;;;;;;27.19;28.30;101916.16;4929593;29;19919;-79
2024/02/17 12:39:09;;;;;;;;;;;;;;;29.64;25.18;101923.28;4915112;29;19923;-79
2024/02/17 12:42:05;;;;;;;;;;;;;;;29.28;26.16;101918.00;4910464;29;19919;-79
2024/02/17 12:44:57;;;;;;;;;;;;;;;31.56;23.38;101926.94;4901285;29;20300;-83
2024/02/17 12:47:47;;;;;;;;;;;;;;;29.45;26.11;101923.91;4915030;29;19923;-82
2024/02/17 12:50:39;;;;;;;;;;;;;;;31.08;24.75;101919.78;4925013;29;20391;-83
2024/02/17 12:53:33;;;;;;;;;;;;;;;31.42;23.32;101922.38;4937097;29;19922;-81
2024/02/17 12:56:25;;;;;;;;;;;;;;;32.50;22.39;101919.81;4905041;29;19919;-83
2024/02/17 12:59:17;;;;;;;;;;;;;;;32.68;21.54;101926.63;4943019;29;19919;-83
2024/02/17 13:02:06;;;;;;;;;;;;;;;33.91;20.51;101933.13;4936254;29;19918;-83
2024/02/17 13:04:53;;;;;;;;;;;;;;;34.09;19.90;101923.31;4908483;29;19918;-84
2024/02/17 13:07:43;;;;;;;;;;;;;;;34.44;19.70;101927.91;4934257;29;19918;-85
2024/02/17 13:10:34;;;;;;;;;;;;;;;34.15;20.07;101927.16;4910956;29;19927;-84
2024/02/17 13:13:26;;;;;;;;;;;;;;;30.04;24.06;101918.84;4910695;29;19923;-83
2024/02/17 13:16:18;;;;;;;;;;;;;;;32.92;21.05;101918.78;4922873;29;19919;-84
2024/02/17 13:19:10;;;;;;;;;;;;;;;33.04;21.13;101914.47;4907062;29;19923;-82
2024/02/17 13:22:02;;;;;;;;;;;;;;;34.38;19.17;101918.44;4904379;29;19919;-83
2024/02/17 13:24:52;;;;;;;;;;;;;;;31.41;22.12;101915.97;4922930;29;20402;-83
2024/02/17 13:27:42;;;;;;;;;;;;;;;33.21;20.83;101920.94;4929076;29;19935;-83
2024/02/17 13:30:34;;;;;;;;;;;;;;;32.79;20.24;101928.41;4908861;29;19922;-83
2024/02/17 13:33:26;;;;;;;;;;;;;;;35.56;17.90;101922.53;4930743;29;19919;-84
2024/02/17 13:36:16;;;;;;;;;;;;;;;34.03;19.35;101916.66;4937274;29;19918;-83
2024/02/17 13:39:08;;;;;;;;;;;;;;;34.74;19.04;101924.53;4919952;29;19923;-83
2024/02/17 13:41:58;;;;;;;;;;;;;;;32.46;21.36;101922.69;4918093;29;19919;-83
2024/02/17 13:44:47;;;;;;;;;;;;;;;31.58;21.76;101924.53;4918039;29;19918;-83
2024/02/17 13:47:39;;;;;;;;;;;;;;;33.75;19.86;101916.25;4911574;29;19919;-82
2024/02/17 13:50:31;;;;;;;;;;;;;;;30.28;23.71;101916.91;4918513;29;19935;-82
2024/02/17 13:53:21;;;;;;;;;;;;;;;32.79;20.85;101925.59;4914962;29;19919;-82
2024/02/17 13:56:13;;;;;;;;;;;;;;;30.44;22.45;101920.72;4912973;29;20305;-82
2024/02/17 13:59:05;;;;;;;;;;;;;;;30.52;22.49;101927.06;4917779;29;19918;-82
2024/02/17 14:01:57;;;;;;;;;;;;;;;30.38;23.06;101930.81;4922211;29;19919;-82
2024/02/17 14:04:49;;;;;;;;;;;;;;;30.98;22.30;101938.34;4917665;29;19919;-82
2024/02/17 14:07:41;;;;;;;;;;;;;;;32.73;20.86;101945.03;4920562;29;19919;-83
2024/02/17 14:10:33;;;;;;;;;;;;;;;33.70;19.57;101950.66;4933718;29;20301;-82
2024/02/17 14:13:25;;;;;;;;;;;;;;;35.02;18.06;101955.97;4911950;29;19919;-83
2024/02/17 14:16:14;;;;;;;;;;;;;;;33.37;19.03;101955.53;4904536;29;19926;-81
2024/02/17 14:19:06;;;;;;;;;;;;;;;31.09;22.63;101949.44;4906758;29;19919;-82
2024/02/17 14:21:58;;;;;;;;;;;;;;;32.22;21.02;101946.56;4917408;29;19927;-82
2024/02/17 14:24:50;;;;;;;;;;;;;;;30.68;22.97;101941.25;4921636;29;19919;-81
2024/02/17 14:27:39;;;;;;;;;;;;;;;29.45;24.23;101944.31;4934060;29;20384;-81
2024/02/17 14:30:33;;;;;;;;;;;;;;;28.66;24.97;101943.28;4934508;29;19923;-82
2024/02/17 14:33:22;;;;;;;;;;;;;;;29.62;24.48;101939.72;4913420;29;19919;-81
2024/02/17 14:36:12;;;;;;;;;;;;;;;28.48;25.24;101937.00;4935239;29;20323;-81
2024/02/17 14:39:04;;;;;;;;;;;;;;;29.00;24.94;101939.88;4902859;29;19923;-81
2024/02/17 14:41:56;;;;;;;;;;;;;;;30.08;23.62;101942.03;4913018;29;19918;-81
2024/02/17 14:44:48;;;;;;;;;;;;;;;28.98;24.58;101936.69;4906369;29;20588;-82
2024/02/17 14:47:37;;;;;;;;;;;;;;;29.44;24.53;101928.72;4934062;29;19930;-82
2024/02/17 14:50:24;;;;;;;;;;;;;;;28.67;25.44;101933.69;4938642;29;19922;-81
2024/02/17 14:53:16;;;;;;;;;;;;;;;28.55;25.30;101941.78;4927707;29;20422;-82